Weather at Patras Araxos Agamemnon Airport

Public forecast

Using degrees Celsius for public forecast. Weather courtesy of forecast.io.

Current aviation weather report (METAR) for Patras Araxos Agamemnon Airport

Retrieved 2021/06/24 17:50 UTC (24 minutes ago):

LGRX 241750Z 00000KT CAVOK 29/18 Q1014 BLU

Aviation forecast (TAF) for Patras Araxos Agamemnon Airport

Forecast is more than 12 hours old.

Retrieved 2020/03/18 09:39 UTC (1 year ago):

TAF LGRX 180800Z 1809/1821 33006KT 9999 FEW030 BECMG 1816/1818 07010KT